Etusivu
METAR-TAF:

METAR-TAF

Lentoasemat :

Mytilínin kansainvälinen lentoasema

Mytilini-Lesvos, Kreikka

Leveyspiiri: 39-04N, Pituuspiiri: 026-36E, korkeus merenpinnasta: 3 m

Tämänhetkinen sää

Tämä raportti tehtiin 2 tuntia ja 8 minuuttia sitten, kello 20.50 UTC
Tuuli 10 kn etelästä/kaakosta
Lämpötila 16°C
Kosteus 82%
Ilmanpaine 1020 hPa
Näkyvyys 10 km tai enemmän
Hajanaisia pilviä 2500 ft:n korkeudessa

METAR: LGMT 232050Z 16010KT 9999 SCT025 16/13 Q1020

Aika: 00:58 (22:58 UTC)

Sääennuste

Tämä raportti tehtiin 2 tuntia ja 58 minuuttia sitten, kello 20.00 UTC
Ennuste voimassa 23. päivästä klo 21 UTC - 24. päivään klo 06 UTC
Tuuli 15 kn etelästä
Näkyvyys 10 km tai enemmän
Muutamia pilviä 1500 ft:n korkeudessa
Hajanaisia pilviä 2500 ft:n korkeudessa

TAF: LGMT 232000Z 2321/2406 18015KT 9999 FEW015 SCT025

Säähavainnot ja -ennusteet yli 4000 lentoasemalta (METAR- ja TAF-raportit).

Käytössä olevat sääasemat on merkitty karttaan keltaisilla ja punaisilla pisteillä.

Aseta hiiri pisteen päälle nähdäksesi sääaseman nimen.

Klikkaa sitten nähdäksesi säähavainnot ja -ennusteet.

Kartan vaihtaminen: klikkaa mustalla rastilla varustettuja vihreitä pisteitä, niin voit zoomata sisään; viivalla varustettua vihreää pistettä, niin voit zoomata ulos tai vihreitä nuolia, niin pääset viereisille kartoille.


METAR-TAF: